createdAt,value
2023-05-24T04:31:33.161Z,0.4416
2023-05-24T04:32:35.000Z,0.5160
2023-05-24T04:33:37.036Z,0.5309
2023-05-24T04:34:39.164Z,0.5299
2023-05-24T04:35:41.114Z,0.5132
2023-05-24T04:36:43.148Z,0.5179
2023-05-24T04:37:45.217Z,0.5278
2023-05-24T04:38:47.278Z,0.5219
2023-05-24T04:39:49.379Z,0.5224
2023-05-24T04:40:51.345Z,0.5241
2023-05-24T04:41:53.407Z,0.5221
2023-05-24T04:42:55.420Z,0.5135
2023-05-24T04:43:57.449Z,0.5152
2023-05-24T04:44:59.514Z,0.5188
2023-05-24T04:46:01.559Z,0.5207
2023-05-24T04:47:03.687Z,0.5188
2023-05-24T04:48:05.696Z,0.5118
2023-05-24T04:49:07.673Z,0.5026
2023-05-24T04:50:09.761Z,0.4981
2023-05-24T04:51:11.781Z,0.4984
2023-05-24T04:52:13.838Z,0.4908
2023-05-24T04:53:15.871Z,0.4902
2023-05-24T04:54:17.914Z,0.4843
2023-05-24T04:55:19.949Z,0.4843
2023-05-24T04:56:21.989Z,0.4835
2023-05-24T04:57:24.035Z,0.4810
2023-05-24T04:58:26.087Z,0.4762
2023-05-24T04:59:28.111Z,0.4845
2023-05-24T05:00:30.174Z,0.4814
2023-05-24T05:01:32.222Z,0.4739
2023-05-24T05:02:34.301Z,0.4731
2023-05-24T05:03:36.412Z,0.4757
2023-05-24T05:04:38.326Z,0.4747
2023-05-24T05:05:40.376Z,0.4847
2023-05-24T05:06:42.442Z,0.4922
2023-05-24T05:07:44.496Z,0.5054
2023-05-24T05:08:46.519Z,0.5131
2023-05-24T05:09:48.588Z,0.5130
2023-05-24T05:10:50.633Z,0.5037
2023-05-24T05:11:52.672Z,0.4944
2023-05-24T05:12:54.706Z,0.4883
2023-05-24T05:13:56.798Z,0.4830
2023-05-24T05:14:58.796Z,0.4810
2023-05-24T05:16:00.882Z,0.4838
2023-05-24T05:17:02.912Z,0.4834
2023-05-24T05:18:04.991Z,0.4877
2023-05-24T05:19:07.007Z,0.4980
2023-05-24T05:20:09.133Z,0.4995
2023-05-24T05:21:11.070Z,0.5022
2023-05-24T05:22:13.114Z,0.5150
2023-05-24T05:23:15.287Z,0.5152
2023-05-24T05:24:17.243Z,0.5131
2023-05-24T05:25:19.277Z,0.5079
2023-05-24T05:26:21.313Z,0.5063
2023-05-24T05:27:23.355Z,0.5038
2023-05-24T05:28:25.398Z,0.5069
2023-05-24T05:29:27.424Z,0.5029
2023-05-24T05:30:29.513Z,0.5031
2023-05-24T05:31:31.538Z,0.5040
2023-05-24T05:32:33.633Z,0.4956
2023-05-24T05:33:35.643Z,0.4816
2023-05-24T05:34:37.671Z,0.4790
2023-05-24T05:35:39.718Z,0.4769
2023-05-24T05:36:41.754Z,0.4760
2023-05-24T05:37:43.852Z,0.4778
2023-05-24T05:38:45.830Z,0.4724
2023-05-24T05:39:47.913Z,0.4670
2023-05-24T05:40:49.949Z,0.4606
2023-05-24T05:41:51.987Z,0.4626
2023-05-24T05:42:54.025Z,0.4626
2023-05-24T05:43:56.347Z,0.4700
2023-05-24T05:44:58.166Z,0.4683
2023-05-24T05:46:00.230Z,0.4722
2023-05-24T05:47:02.254Z,0.4725
2023-05-24T05:48:04.334Z,0.4687
2023-05-24T05:49:06.398Z,0.4642
2023-05-24T05:50:08.406Z,0.4606
2023-05-24T05:51:10.450Z,0.4599
2023-05-24T05:52:12.482Z,0.4640
2023-05-24T05:53:14.523Z,0.4632
2023-05-24T05:54:16.601Z,0.4616
2023-05-24T05:55:18.594Z,0.4631
2023-05-24T05:56:20.647Z,0.4636
2023-05-24T05:57:22.753Z,0.4639
2023-05-24T05:58:24.757Z,0.4620
2023-05-24T05:59:26.804Z,0.4667
2023-05-24T06:00:28.957Z,0.4706
2023-05-24T06:01:30.866Z,0.4719
2023-05-24T06:02:32.970Z,0.4793
2023-05-24T06:03:35.200Z,0.4819
2023-05-24T06:04:37.059Z,0.4768
2023-05-24T06:05:39.063Z,0.4716
2023-05-24T06:06:41.154Z,0.4786
2023-05-24T06:07:43.165Z,0.4775
2023-05-24T06:08:45.282Z,0.4804
2023-05-24T06:09:47.310Z,0.4821
2023-05-24T06:10:52.039Z,0.4812
2023-05-24T06:11:51.389Z,0.4814
2023-05-24T06:12:53.473Z,0.4885
2023-05-24T06:13:55.457Z,0.4966
2023-05-24T06:14:57.561Z,0.4953
2023-05-24T06:15:59.566Z,0.4933
2023-05-24T06:17:01.690Z,0.4905
2023-05-24T06:18:03.819Z,0.4848
2023-05-24T06:19:06.603Z,0.4914
2023-05-24T06:20:07.764Z,0.5011
2023-05-24T06:21:09.807Z,0.5089
2023-05-24T06:22:11.807Z,0.5001
2023-05-24T06:23:14.016Z,0.4949
2023-05-24T06:24:15.901Z,0.4925
2023-05-24T06:25:18.008Z,0.4989
2023-05-24T06:26:20.002Z,0.5066
2023-05-24T06:27:22.151Z,0.5131
2023-05-24T06:28:24.080Z,0.5207
2023-05-24T06:29:26.154Z,0.5304
2023-05-24T06:30:28.385Z,0.5319
2023-05-24T06:31:30.221Z,0.5324
2023-05-24T06:32:32.380Z,0.5368
2023-05-24T06:33:35.766Z,0.5313
2023-05-24T06:34:36.371Z,0.5295
2023-05-24T06:35:38.413Z,0.5391
2023-05-24T06:36:40.465Z,0.5387
2023-05-24T06:37:42.497Z,0.5418
2023-05-24T06:38:44.514Z,0.5393
2023-05-24T06:39:46.626Z,0.5335
2023-05-24T06:40:48.605Z,0.5332
2023-05-24T06:41:50.659Z,0.5446
2023-05-24T06:42:52.736Z,0.5560
2023-05-24T06:43:54.772Z,0.5575
2023-05-24T06:44:56.841Z,0.5419
2023-05-24T06:45:58.884Z,0.5413
2023-05-24T06:47:01.007Z,0.5365
2023-05-24T06:48:05.024Z,0.5440
2023-05-24T06:49:05.054Z,0.5408
2023-05-24T06:50:07.033Z,0.5356
2023-05-24T06:51:09.091Z,0.5379
2023-05-24T06:52:11.130Z,0.5439
2023-05-24T06:53:13.236Z,0.5316
2023-05-24T06:54:15.243Z,0.5221
2023-05-24T06:55:17.254Z,0.5186
2023-05-24T06:56:19.322Z,0.5155
2023-05-24T06:57:21.355Z,0.5105
2023-05-24T06:58:23.392Z,0.5172
2023-05-24T06:59:25.473Z,0.5189
2023-05-24T07:00:27.583Z,0.5167
2023-05-24T07:01:29.671Z,0.5121
2023-05-24T07:02:31.622Z,0.5077
2023-05-24T07:03:33.642Z,0.5089
2023-05-24T07:04:37.532Z,0.5109
2023-05-24T07:05:37.719Z,0.5119
2023-05-24T07:06:39.829Z,0.5154
2023-05-24T07:07:41.817Z,0.5084
2023-05-24T07:08:43.833Z,0.5066
2023-05-24T07:09:45.896Z,0.5156
2023-05-24T07:10:48.119Z,0.5100
2023-05-24T07:11:50.020Z,0.5107
2023-05-24T07:12:52.016Z,0.5099
2023-05-24T07:13:54.076Z,0.5072
2023-05-24T07:14:56.120Z,0.5114
2023-05-24T07:15:58.158Z,0.5132
2023-05-24T07:17:00.340Z,0.5096
2023-05-24T07:18:02.342Z,0.5079
2023-05-24T07:19:04.949Z,0.5062
2023-05-24T07:20:06.359Z,0.5086
2023-05-24T07:21:08.404Z,0.5115
2023-05-24T07:22:10.496Z,0.5140
2023-05-24T07:23:12.552Z,0.5117
2023-05-24T07:24:16.229Z,0.5103
2023-05-24T07:25:16.581Z,0.5079
2023-05-24T07:26:18.644Z,0.5067
2023-05-24T07:27:20.650Z,0.5036
2023-05-24T07:28:22.741Z,0.5024
2023-05-24T07:29:24.981Z,0.4984
2023-05-24T07:30:32.301Z,0.4984
2023-05-24T07:31:28.870Z,0.4928
2023-05-24T07:32:30.990Z,0.4976
2023-05-24T07:33:33.040Z,0.5028
2023-05-24T07:34:35.027Z,0.5021
2023-05-24T07:35:37.087Z,0.5086
2023-05-24T07:36:39.301Z,0.5169
2023-05-24T07:37:41.228Z,0.5158
2023-05-24T07:38:43.328Z,0.5189
2023-05-24T07:39:45.224Z,0.5208
2023-05-24T07:40:47.340Z,0.5273
2023-05-24T07:41:49.330Z,0.5235
2023-05-24T07:42:51.416Z,0.5168
2023-05-24T07:43:53.478Z,0.5073
2023-05-24T07:44:55.549Z,0.5068
2023-05-24T07:45:57.522Z,0.5077
2023-05-24T07:46:59.731Z,0.5095
2023-05-24T07:48:01.861Z,0.5058
2023-05-24T07:49:03.673Z,0.5092
2023-05-24T07:50:06.065Z,0.5073
2023-05-24T07:51:08.059Z,0.5167
2023-05-24T07:52:09.784Z,0.5144
2023-05-24T07:53:11.853Z,0.5150
2023-05-24T07:54:13.894Z,0.5159
2023-05-24T07:55:15.940Z,0.5183
2023-05-24T07:56:17.953Z,0.5241
2023-05-24T07:57:20.035Z,0.5154
2023-05-24T07:58:22.093Z,0.5182
2023-05-24T07:59:24.106Z,0.5152
2023-05-24T08:00:26.259Z,0.5140
2023-05-24T08:01:28.213Z,0.5140
2023-05-24T08:02:30.439Z,0.5176
2023-05-24T08:03:32.379Z,0.5107
2023-05-24T08:04:34.367Z,0.5029
2023-05-24T08:05:36.562Z,0.4934
2023-05-24T08:06:38.496Z,0.4925
2023-05-24T08:07:40.469Z,0.4977
2023-05-24T08:08:42.555Z,0.5044
2023-05-24T08:09:44.651Z,0.4976
2023-05-24T08:10:46.604Z,0.4903
2023-05-24T08:11:48.664Z,0.4945
2023-05-24T08:12:50.667Z,0.5053
2023-05-24T08:13:52.721Z,0.5141
2023-05-24T08:14:55.272Z,0.5208
2023-05-24T08:15:56.879Z,0.5300
2023-05-24T08:16:58.887Z,0.5349
2023-05-24T08:18:00.973Z,0.5444
2023-05-24T08:19:03.017Z,0.5565
2023-05-24T08:20:05.084Z,0.5545
2023-05-24T08:21:07.035Z,0.5503
2023-05-24T08:22:09.239Z,0.5460
2023-05-24T08:23:11.351Z,0.5495
2023-05-24T08:24:13.186Z,0.5602
2023-05-24T08:25:16.974Z,0.5534
2023-05-24T08:26:17.486Z,0.5520
2023-05-24T08:27:19.314Z,0.5442
2023-05-24T08:28:21.484Z,0.5459
2023-05-24T08:29:23.423Z,0.5502
2023-05-24T08:30:25.734Z,0.5459
2023-05-24T08:31:27.564Z,0.5374
2023-05-24T08:32:29.587Z,0.5373
2023-05-24T08:33:31.630Z,0.5445
2023-05-24T08:34:33.747Z,0.5422
2023-05-24T08:35:35.776Z,0.5428
2023-05-24T08:36:37.831Z,0.5397
2023-05-24T08:37:39.955Z,0.5421
2023-05-24T08:38:41.927Z,0.5511
2023-05-24T08:39:44.120Z,0.5478
2023-05-24T08:40:46.076Z,0.5561
2023-05-24T08:42:01.026Z,0.5557
2023-05-24T08:42:50.151Z,0.5533
2023-05-24T08:43:52.185Z,0.5470
2023-05-24T08:44:54.205Z,0.5439
2023-05-24T08:45:56.282Z,0.5384
2023-05-24T08:46:58.369Z,0.5456
2023-05-24T08:48:00.463Z,0.5489
2023-05-24T08:49:02.548Z,0.5505
2023-05-24T08:50:04.499Z,0.5469
2023-05-24T08:51:06.630Z,0.5445
2023-05-24T08:52:08.642Z,0.5503
2023-05-24T08:53:10.573Z,0.5488
2023-05-24T08:54:12.662Z,0.5512
2023-05-24T08:55:14.680Z,0.5486
2023-05-24T08:56:16.780Z,0.5444
2023-05-24T08:57:18.756Z,0.5486
2023-05-24T08:58:20.838Z,0.5365
2023-05-24T08:59:22.856Z,0.5350
2023-05-24T09:00:24.931Z,0.5354
2023-05-24T09:01:28.953Z,0.5392
2023-05-24T09:02:29.007Z,0.5406
2023-05-24T09:03:31.148Z,0.5264
2023-05-24T09:04:33.109Z,0.5265
2023-05-24T09:05:35.168Z,0.5351
2023-05-24T09:06:37.191Z,0.5315
2023-05-24T09:07:39.259Z,0.5369
2023-05-24T09:08:43.628Z,0.5404
2023-05-24T09:09:43.323Z,0.5460
2023-05-24T09:10:54.554Z,0.5413
2023-05-24T09:11:47.423Z,0.5439
2023-05-24T09:12:49.470Z,0.5413
2023-05-24T09:13:51.488Z,0.5358
2023-05-24T09:14:53.621Z,0.5358
2023-05-24T09:15:55.661Z,0.5289
2023-05-24T09:16:57.665Z,0.5263
2023-05-24T09:17:59.702Z,0.5220
2023-05-24T09:19:01.747Z,0.5281
2023-05-24T09:20:03.856Z,0.5287
2023-05-24T09:21:05.866Z,0.5416
2023-05-24T09:22:08.202Z,0.5393
2023-05-24T09:23:10.032Z,0.5360
2023-05-24T09:24:11.995Z,0.5440
2023-05-24T09:25:14.083Z,0.5510
2023-05-24T09:26:16.120Z,0.5533
2023-05-24T09:27:18.122Z,0.5555
2023-05-24T09:28:20.167Z,0.5591
2023-05-24T09:29:22.359Z,0.5585
2023-05-24T09:30:24.279Z,0.5563
2023-05-24T09:31:26.344Z,0.5483
2023-05-24T09:32:28.437Z,0.5369
2023-05-24T09:33:30.393Z,0.5403
2023-05-24T09:34:32.407Z,0.5345
2023-05-24T09:35:34.645Z,0.5370
2023-05-24T09:36:36.545Z,0.5312
2023-05-24T09:37:38.757Z,0.5332
2023-05-24T09:38:40.691Z,0.5336
2023-05-24T09:39:42.701Z,0.5436
2023-05-24T09:40:44.727Z,0.5477
2023-05-24T09:41:46.910Z,0.5420
2023-05-24T09:42:49.834Z,0.5282
2023-05-24T09:43:50.896Z,0.5267
2023-05-24T09:44:53.184Z,0.5223
2023-05-24T09:45:54.960Z,0.5203
2023-05-24T09:46:57.027Z,0.5251
2023-05-24T09:47:59.137Z,0.5313
2023-05-24T09:49:01.081Z,0.5258
2023-05-24T09:50:03.165Z,0.5271
2023-05-24T09:51:05.196Z,0.5294
2023-05-24T09:52:07.305Z,0.5267
2023-05-24T09:53:09.289Z,0.5223
2023-05-24T09:54:11.296Z,0.5235
2023-05-24T09:55:13.366Z,0.5272
2023-05-24T09:56:15.430Z,0.5174
2023-05-24T09:57:17.427Z,0.5146
2023-05-24T09:58:19.484Z,0.5186
2023-05-24T09:59:21.553Z,0.5263
2023-05-24T10:00:23.658Z,0.5221
2023-05-24T10:01:25.688Z,0.5276
2023-05-24T10:02:31.369Z,0.5268
2023-05-24T10:03:29.864Z,0.5335
2023-05-24T10:04:31.861Z,0.5245
2023-05-24T10:05:33.938Z,0.5199
2023-05-24T10:06:35.871Z,0.5187
2023-05-24T10:07:37.903Z,0.5109
2023-05-24T10:08:40.046Z,0.5179
2023-05-24T10:09:42.022Z,0.5199
2023-05-24T10:10:44.456Z,0.5190
2023-05-24T10:11:46.275Z,0.5310
2023-05-24T10:12:48.322Z,0.5434
2023-05-24T10:13:50.214Z,0.5483
2023-05-24T10:14:52.330Z,0.5414
2023-05-24T10:15:54.407Z,0.5306
2023-05-24T10:16:56.389Z,0.5355
2023-05-24T10:17:58.583Z,0.5304
2023-05-24T10:19:00.447Z,0.5213
2023-05-24T10:20:02.556Z,0.5249
2023-05-24T10:21:04.762Z,0.5220
2023-05-24T10:22:06.592Z,0.5281
2023-05-24T10:23:08.628Z,0.5345
2023-05-24T10:24:10.733Z,0.5387
2023-05-24T10:25:12.835Z,0.5375
2023-05-24T10:26:14.833Z,0.5346
2023-05-24T10:27:16.967Z,0.5343
2023-05-24T10:28:18.923Z,0.5274
2023-05-24T10:29:20.938Z,0.5267
2023-05-24T10:30:23.005Z,0.5269
2023-05-24T10:31:25.127Z,0.5247
2023-05-24T10:32:27.203Z,0.5221
2023-05-24T10:33:29.166Z,0.5202
2023-05-24T10:34:31.232Z,0.5258
2023-05-24T10:35:33.246Z,0.5180
2023-05-24T10:36:35.308Z,0.5174
2023-05-24T10:37:38.010Z,0.5124
2023-05-24T10:38:39.434Z,0.5115
2023-05-24T10:39:41.475Z,0.5220
2023-05-24T10:40:43.503Z,0.5204
2023-05-24T10:41:45.608Z,0.5199
2023-05-24T10:42:47.685Z,0.5199
2023-05-24T10:44:07.301Z,0.5296
2023-05-24T10:44:51.743Z,0.5240
2023-05-24T10:45:53.838Z,0.5248
2023-05-24T10:46:55.876Z,0.5369
2023-05-24T10:47:57.907Z,0.5395
2023-05-24T10:48:59.931Z,0.5378
2023-05-24T10:50:02.008Z,0.5364
2023-05-24T10:51:04.210Z,0.5339
2023-05-24T10:52:06.062Z,0.5242
2023-05-24T10:53:08.119Z,0.5160
2023-05-24T10:54:10.191Z,0.5234
2023-05-24T10:55:12.241Z,0.5246
2023-05-24T10:56:14.290Z,0.5205
2023-05-24T10:57:16.350Z,0.5184
2023-05-24T10:58:18.372Z,0.5214
2023-05-24T10:59:20.416Z,0.5173
2023-05-24T11:00:33.683Z,0.5195
2023-05-24T11:01:24.593Z,0.5175
2023-05-24T11:02:26.650Z,0.5226
2023-05-24T11:03:28.923Z,0.5203
2023-05-24T11:04:30.700Z,0.5168
2023-05-24T11:05:32.751Z,0.5122
2023-05-24T11:06:34.811Z,0.5138
2023-05-24T11:07:36.854Z,0.5173
2023-05-24T11:08:38.921Z,0.5223
2023-05-24T11:09:40.944Z,0.5276
2023-05-24T11:10:43.380Z,0.5202
2023-05-24T11:11:45.023Z,0.5155
2023-05-24T11:12:47.125Z,0.5162
2023-05-24T11:13:49.153Z,0.5232
2023-05-24T11:14:51.231Z,0.5200
2023-05-24T11:15:53.281Z,0.5180
2023-05-24T11:16:55.385Z,0.5149
2023-05-24T11:17:57.522Z,0.5121
2023-05-24T11:18:59.408Z,0.5076
2023-05-24T11:20:01.511Z,0.5083
2023-05-24T11:21:04.097Z,0.5084
2023-05-24T11:22:05.561Z,0.5093
2023-05-24T11:23:07.593Z,0.5065
2023-05-24T11:24:09.768Z,0.4989
2023-05-24T11:25:11.692Z,0.4976
2023-05-24T11:26:13.775Z,0.4975
2023-05-24T11:27:15.810Z,0.5064
2023-05-24T11:28:17.900Z,0.5059
2023-05-24T11:29:19.911Z,0.5096
2023-05-24T11:30:21.935Z,0.5091
2023-05-24T11:31:24.035Z,0.5099
2023-05-24T11:32:26.151Z,0.5054
2023-05-24T11:33:28.097Z,0.5093
2023-05-24T11:34:30.116Z,0.5042
2023-05-24T11:35:32.197Z,0.4980
2023-05-24T11:36:34.235Z,0.4928
2023-05-24T11:37:46.135Z,0.4871
2023-05-24T11:38:38.318Z,0.4890
2023-05-24T11:39:40.399Z,0.4964
2023-05-24T11:40:42.675Z,0.5036
2023-05-24T11:41:44.513Z,0.5083
2023-05-24T11:42:46.548Z,0.5109
2023-05-24T11:43:48.603Z,0.5087
2023-05-24T11:44:51.017Z,0.5107
2023-05-24T11:45:52.802Z,0.5178
2023-05-24T11:46:54.781Z,0.5153
2023-05-24T11:47:56.854Z,0.5118
2023-05-24T11:48:58.804Z,0.5081
2023-05-24T11:50:00.847Z,0.5008
2023-05-24T11:51:02.895Z,0.5062
2023-05-24T11:52:04.966Z,0.5179
2023-05-24T11:53:07.027Z,0.5231
2023-05-24T11:54:09.052Z,0.5249
2023-05-24T11:55:11.115Z,0.5216
2023-05-24T11:56:13.136Z,0.5261
2023-05-24T11:57:15.164Z,0.5307
2023-05-24T11:58:17.253Z,0.5278
2023-05-24T11:59:19.279Z,0.5289
2023-05-24T12:00:21.526Z,0.5289
2023-05-24T12:01:23.584Z,0.5271
2023-05-24T12:02:25.443Z,0.5317
2023-05-24T12:03:27.618Z,0.5376
2023-05-24T12:04:29.742Z,0.5313
2023-05-24T12:05:31.558Z,0.5347
2023-05-24T12:06:33.597Z,0.5378
2023-05-24T12:07:35.690Z,0.5376
2023-05-24T12:08:37.678Z,0.5327
2023-05-24T12:09:39.758Z,0.5357
2023-05-24T12:10:41.991Z,0.5303
2023-05-24T12:11:43.870Z,0.5282
2023-05-24T12:12:46.335Z,0.5289
2023-05-24T12:13:47.917Z,0.5336
2023-05-24T12:14:49.932Z,0.5291
2023-05-24T12:15:54.897Z,0.5220
2023-05-24T12:16:54.043Z,0.5184
2023-05-24T12:17:56.719Z,0.5180
2023-05-24T12:19:05.348Z,0.5178
2023-05-24T12:20:00.315Z,0.5180
2023-05-24T12:21:02.237Z,0.5300
2023-05-24T12:22:04.284Z,0.5323
2023-05-24T12:23:06.317Z,0.5445
2023-05-24T12:24:08.418Z,0.5412
2023-05-24T12:25:10.465Z,0.5422
2023-05-24T12:26:12.448Z,0.5430
2023-05-24T12:27:14.529Z,0.5508
2023-05-24T12:28:16.554Z,0.5409
2023-05-24T12:29:18.805Z,0.5287
2023-05-24T12:30:20.642Z,0.5209
2023-05-24T12:31:22.697Z,0.5212
2023-05-24T12:32:24.791Z,0.5274
2023-05-24T12:33:26.781Z,0.5314
2023-05-24T12:34:28.847Z,0.5399
2023-05-24T12:35:30.884Z,0.5421
2023-05-24T12:36:32.941Z,0.5394
2023-05-24T12:37:34.950Z,0.5401
2023-05-24T12:38:37.009Z,0.5421
2023-05-24T12:39:39.141Z,0.5305
2023-05-24T12:40:41.354Z,0.5272
2023-05-24T12:41:43.239Z,0.5392
2023-05-24T12:42:45.335Z,0.5372
2023-05-24T12:43:47.314Z,0.5284
2023-05-24T12:44:49.377Z,0.5242
2023-05-24T12:45:53.604Z,0.5146
2023-05-24T12:46:53.539Z,0.5067
2023-05-24T12:47:55.526Z,0.5007
2023-05-24T12:48:57.545Z,0.5051
2023-05-24T12:49:59.732Z,0.5139
2023-05-24T12:51:01.697Z,0.5169
2023-05-24T12:52:03.693Z,0.5151
2023-05-24T12:53:05.745Z,0.5249
2023-05-24T12:54:07.822Z,0.5270
2023-05-24T12:55:09.985Z,0.5316
2023-05-24T12:56:11.949Z,0.5251
2023-05-24T12:57:13.981Z,0.5142
2023-05-24T12:58:15.986Z,0.5146
2023-05-24T12:59:18.062Z,0.5168
2023-05-24T13:00:20.055Z,0.5222
2023-05-24T13:01:22.366Z,0.5285
2023-05-24T13:02:24.176Z,0.5370
2023-05-24T13:03:26.189Z,0.5276
2023-05-24T13:04:28.264Z,0.5160
2023-05-24T13:05:30.403Z,0.5064
2023-05-24T13:06:32.334Z,0.5038
2023-05-24T13:07:34.454Z,0.4971
2023-05-24T13:08:38.116Z,0.5017
2023-05-24T13:09:38.506Z,0.5059
2023-05-24T13:10:40.654Z,0.4988
2023-05-24T13:11:42.592Z,0.4958
2023-05-24T13:12:44.619Z,0.4957
2023-05-24T13:13:47.133Z,0.5104
2023-05-24T13:14:50.679Z,0.5160
2023-05-24T13:15:50.759Z,0.5129
2023-05-24T13:16:53.073Z,0.5084
2023-05-24T13:17:54.998Z,0.5110
2023-05-24T13:18:56.924Z,0.5152
2023-05-24T13:20:01.726Z,0.5116
2023-05-24T13:21:00.993Z,0.5192
2023-05-24T13:22:03.062Z,0.5308
2023-05-24T13:23:05.111Z,0.5309
2023-05-24T13:24:07.102Z,0.5352
2023-05-24T13:25:09.157Z,0.5321
2023-05-24T13:26:11.239Z,0.5379
2023-05-24T13:27:13.289Z,0.5450
2023-05-24T13:28:15.324Z,0.5418
2023-05-24T13:29:34.181Z,0.5355
2023-05-24T13:30:19.418Z,0.5301
2023-05-24T13:31:21.488Z,0.5201
2023-05-24T13:32:23.574Z,0.5165
2023-05-24T13:33:25.530Z,0.5165
2023-05-24T13:34:27.582Z,0.5193
2023-05-24T13:35:29.620Z,0.5189
2023-05-24T13:36:31.672Z,0.5259
2023-05-24T13:37:33.754Z,0.5291
2023-05-24T13:38:35.769Z,0.5346
2023-05-24T13:39:37.835Z,0.5319
2023-05-24T13:40:41.777Z,0.5257
2023-05-24T13:41:42.174Z,0.5238
2023-05-24T13:42:44.017Z,0.5212
2023-05-24T13:43:45.985Z,0.5189
2023-05-24T13:44:48.032Z,0.5118
2023-05-24T13:45:50.070Z,0.5087
2023-05-24T13:46:52.165Z,0.5060
2023-05-24T13:47:54.216Z,0.5128
2023-05-24T13:48:56.247Z,0.5117
2023-05-24T13:49:58.241Z,0.5067
2023-05-24T13:51:00.301Z,0.5145
2023-05-24T13:52:02.389Z,0.5094
2023-05-24T13:53:04.414Z,0.5024
2023-05-24T13:54:06.437Z,0.5099
2023-05-24T13:55:08.530Z,0.5039
2023-05-24T13:56:10.516Z,0.5010
2023-05-24T13:57:12.652Z,0.5046
2023-05-24T13:58:14.602Z,0.5105
2023-05-24T13:59:16.735Z,0.5093
2023-05-24T14:00:18.737Z,0.5048
2023-05-24T14:01:20.932Z,0.5037
2023-05-24T14:02:22.848Z,0.5037
2023-05-24T14:03:24.835Z,0.4937
2023-05-24T14:04:26.884Z,0.4929
2023-05-24T14:05:28.969Z,0.4966
2023-05-24T14:06:30.987Z,0.4949
2023-05-24T14:07:33.087Z,0.4937
2023-05-24T14:08:35.097Z,0.4990
2023-05-24T14:09:37.217Z,0.4971
2023-05-24T14:10:39.220Z,0.5022
2023-05-24T14:11:41.348Z,0.5069
2023-05-24T14:12:43.287Z,0.5022
2023-05-24T14:15:49.520Z,0.5018
2023-05-24T14:16:51.453Z,0.4944
2023-05-24T14:17:53.605Z,0.5000
2023-05-24T14:18:55.553Z,0.4946
2023-05-24T14:19:57.750Z,0.4895
2023-05-24T14:20:59.655Z,0.4881
2023-05-24T14:22:01.731Z,0.4848
2023-05-24T14:23:03.932Z,0.4839
2023-05-24T14:24:05.809Z,0.4827
2023-05-24T14:25:07.825Z,0.4890
2023-05-24T14:26:09.935Z,0.4903
2023-05-24T14:27:11.907Z,0.4935
2023-05-24T14:28:14.016Z,0.5033
2023-05-24T14:29:16.084Z,0.5113
2023-05-24T14:30:18.125Z,0.5086
2023-05-24T14:31:20.139Z,0.4954
2023-05-24T14:32:22.386Z,0.4975
2023-05-24T14:33:24.180Z,0.4934
2023-05-24T14:34:26.280Z,0.4939
2023-05-24T14:35:28.313Z,0.4967
2023-05-24T14:36:30.407Z,0.4982
2023-05-24T14:37:32.457Z,0.4968
2023-05-24T14:38:34.418Z,0.4855
2023-05-24T14:39:36.477Z,0.4879
2023-05-24T14:40:39.051Z,0.4950
2023-05-24T14:41:40.585Z,0.4954
2023-05-24T14:42:42.605Z,0.4940
2023-05-24T14:43:44.663Z,0.4873
2023-05-24T14:44:46.716Z,0.4815
2023-05-24T14:45:49.094Z,0.4806
2023-05-24T14:46:52.007Z,0.4827
2023-05-24T14:47:52.909Z,0.4792
2023-05-24T14:48:54.919Z,0.4827
2023-05-24T14:49:56.923Z,0.4920
2023-05-24T14:50:58.993Z,0.4920
2023-05-24T14:52:01.089Z,0.4969
2023-05-24T14:53:03.093Z,0.5051
2023-05-24T14:54:05.180Z,0.5075
2023-05-24T14:55:07.215Z,0.5033
2023-05-24T14:56:09.314Z,0.5015
2023-05-24T14:57:11.313Z,0.5033
2023-05-24T14:58:13.346Z,0.4975
2023-05-24T14:59:15.369Z,0.4967
2023-05-24T15:00:19.784Z,0.5048
2023-05-24T15:01:19.526Z,0.5118
2023-05-24T15:02:21.673Z,0.5150
2023-05-24T15:03:23.717Z,0.5178
2023-05-24T15:04:25.617Z,0.5254
2023-05-24T15:05:27.660Z,0.5231
2023-05-24T15:06:29.729Z,0.5207
2023-05-24T15:07:31.797Z,0.5216
2023-05-24T15:08:33.873Z,0.5106
2023-05-24T15:09:35.826Z,0.5103
2023-05-24T15:10:37.939Z,0.5168
2023-05-24T15:11:40.035Z,0.5216
2023-05-24T15:12:42.057Z,0.5202
2023-05-24T15:13:44.056Z,0.5128
2023-05-24T15:14:46.089Z,0.5047
2023-05-24T15:15:48.130Z,0.5094
2023-05-24T15:16:50.232Z,0.5095
2023-05-24T15:17:52.290Z,0.5127
2023-05-24T15:18:54.283Z,0.5081
2023-05-24T15:19:56.337Z,0.5066
2023-05-24T15:20:58.422Z,0.5172
2023-05-24T15:22:00.534Z,0.5193
2023-05-24T15:23:02.439Z,0.5207
2023-05-24T15:24:04.517Z,0.5181
2023-05-24T15:25:06.570Z,0.5123
2023-05-24T15:26:08.636Z,0.5144
2023-05-24T15:27:10.741Z,0.5133
2023-05-24T15:28:12.806Z,0.5132
2023-05-24T15:29:14.736Z,0.5099
2023-05-24T15:30:16.827Z,0.5044
2023-05-24T15:31:18.867Z,0.5001
2023-05-24T15:32:20.864Z,0.5032
2023-05-24T15:33:23.005Z,0.5087
2023-05-24T15:34:24.976Z,0.5093
2023-05-24T15:35:27.020Z,0.5105
2023-05-24T15:36:29.087Z,0.5279
2023-05-24T15:37:31.151Z,0.5307
2023-05-24T15:38:33.164Z,0.5278
2023-05-24T15:39:35.204Z,0.5275
2023-05-24T15:40:37.247Z,0.5223
2023-05-24T15:41:39.336Z,0.5177
2023-05-24T15:42:41.469Z,0.5271
2023-05-24T15:43:43.426Z,0.5248
2023-05-24T15:44:45.440Z,0.5298
2023-05-24T15:45:47.493Z,0.5335
2023-05-24T15:46:49.606Z,0.5218
2023-05-24T15:47:51.682Z,0.5134
2023-05-24T15:48:53.657Z,0.5062
2023-05-24T15:49:55.754Z,0.4993
2023-05-24T15:51:25.693Z,0.5037
2023-05-24T15:52:04.329Z,0.5105
2023-05-24T15:53:02.069Z,0.5080
2023-05-24T15:54:03.921Z,0.5015
2023-05-24T15:55:05.944Z,0.5010
2023-05-24T15:56:08.064Z,0.5094
2023-05-24T15:57:10.079Z,0.5154
2023-05-24T15:58:12.155Z,0.5241
2023-05-24T15:59:14.191Z,0.5181
2023-05-24T16:00:16.224Z,0.5212
2023-05-24T16:01:18.339Z,0.5252
2023-05-24T16:02:21.616Z,0.5193
2023-05-24T16:03:22.505Z,0.5189
2023-05-24T16:04:24.395Z,0.5202
2023-05-24T16:05:26.567Z,0.5245
2023-05-24T16:06:28.498Z,0.5189
2023-05-24T16:07:30.523Z,0.5235
2023-05-24T16:08:32.601Z,0.5289
2023-05-24T16:09:34.641Z,0.5374
2023-05-24T16:10:36.663Z,0.5367
2023-05-24T16:11:38.710Z,0.5347
2023-05-24T16:12:40.888Z,0.5350
2023-05-24T16:13:42.825Z,0.5332
2023-05-24T16:14:44.910Z,0.5392
2023-05-24T16:15:47.005Z,0.5515
2023-05-24T16:16:49.078Z,0.5658
2023-05-24T16:17:51.148Z,0.5546
2023-05-24T16:18:53.099Z,0.5552
2023-05-24T16:19:55.311Z,0.5436
2023-05-24T16:20:57.311Z,0.5421
2023-05-24T16:21:59.237Z,0.5508
2023-05-24T16:23:01.266Z,0.5498
2023-05-24T16:24:03.336Z,0.5478
2023-05-24T16:25:05.357Z,0.5355
2023-05-24T16:26:07.406Z,0.5313
2023-05-24T16:27:09.526Z,0.5354
2023-05-24T16:28:11.579Z,0.5389
2023-05-24T16:29:13.579Z,0.5412
2023-05-24T16:30:15.731Z,0.5379
2023-05-24T16:31:17.755Z,0.5477
2023-05-24T16:32:19.827Z,0.5592
2023-05-24T16:33:21.763Z,0.5549
2023-05-24T16:34:23.820Z,0.5421
2023-05-24T16:35:25.915Z,0.5397
2023-05-24T16:36:27.865Z,0.5414
2023-05-24T16:37:29.947Z,0.5357
2023-05-24T16:38:33.220Z,0.5438
2023-05-24T16:39:34.105Z,0.5376
2023-05-24T16:40:36.106Z,0.5278
2023-05-24T16:41:38.378Z,0.5268
2023-05-24T16:42:40.182Z,0.5233
2023-05-24T16:43:42.419Z,0.5150
2023-05-24T16:44:44.572Z,0.5264
2023-05-24T16:45:46.462Z,0.5391
2023-05-24T16:46:48.454Z,0.5419
2023-05-24T16:47:50.544Z,0.5377
2023-05-24T16:48:52.576Z,0.5336
2023-05-24T16:49:54.623Z,0.5381
2023-05-24T16:50:56.752Z,0.5528
2023-05-24T16:51:58.832Z,0.5527
2023-05-24T16:53:00.809Z,0.5405
2023-05-24T16:54:02.793Z,0.5417
2023-05-24T16:55:04.900Z,0.5434
2023-05-24T16:56:07.022Z,0.5291
2023-05-24T16:57:09.243Z,0.5216
2023-05-24T16:58:11.002Z,0.5079
2023-05-24T16:59:13.273Z,0.5183
2023-05-24T17:00:15.106Z,0.5238
2023-05-24T17:01:17.191Z,0.5258
2023-05-24T17:02:19.189Z,0.5227
2023-05-24T17:03:21.330Z,0.5109
2023-05-24T17:04:23.302Z,0.5124
2023-05-24T17:05:25.341Z,0.5174
2023-05-24T17:06:27.391Z,0.5184
2023-05-24T17:07:29.426Z,0.5200
2023-05-24T17:08:31.559Z,0.5231
2023-05-24T17:09:33.550Z,0.5161
2023-05-24T17:10:35.550Z,0.5135
2023-05-24T17:11:37.644Z,0.5214
2023-05-24T17:12:39.679Z,0.5216
2023-05-24T17:13:41.715Z,0.5119
2023-05-24T17:14:43.816Z,0.5076
2023-05-24T17:15:45.861Z,0.5106
2023-05-24T17:16:48.005Z,0.5183
2023-05-24T17:17:50.035Z,0.5221
2023-05-24T17:18:51.979Z,0.5227
2023-05-24T17:19:54.114Z,0.5179
2023-05-24T17:20:56.072Z,0.5183
2023-05-24T17:21:58.113Z,0.5111
2023-05-24T17:23:00.179Z,0.5073
2023-05-24T17:24:02.270Z,0.5102
2023-05-24T17:25:04.232Z,0.5099
2023-05-24T17:26:06.437Z,0.5099
2023-05-24T17:27:08.349Z,0.5086